sensor_id;sensor_type;location;lat;lon;timestamp;P1;durP1;ratioP1;P2;durP2;ratioP2
80211;SDS011;70434;37.956;23.722;2023-11-21T00:02:20;12.80;;;7.75;;
80211;SDS011;70434;37.956;23.722;2023-11-21T00:04:47;14.82;;;7.18;;
80211;SDS011;70434;37.956;23.722;2023-11-21T00:07:13;12.90;;;6.75;;
80211;SDS011;70434;37.956;23.722;2023-11-21T00:09:40;14.45;;;7.47;;
80211;SDS011;70434;37.956;23.722;2023-11-21T00:12:06;12.02;;;7.40;;
80211;SDS011;70434;37.956;23.722;2023-11-21T00:14:37;13.70;;;7.03;;
80211;SDS011;70434;37.956;23.722;2023-11-21T00:17:03;14.15;;;6.50;;
80211;SDS011;70434;37.956;23.722;2023-11-21T00:19:30;12.85;;;6.25;;
80211;SDS011;70434;37.956;23.722;2023-11-21T00:21:56;10.98;;;6.65;;
80211;SDS011;70434;37.956;23.722;2023-11-21T00:24:23;13.00;;;6.53;;
80211;SDS011;70434;37.956;23.722;2023-11-21T00:26:50;11.65;;;6.65;;
80211;SDS011;70434;37.956;23.722;2023-11-21T00:29:16;12.27;;;6.97;;
80211;SDS011;70434;37.956;23.722;2023-11-21T00:31:43;9.57;;;5.88;;
80211;SDS011;70434;37.956;23.722;2023-11-21T00:34:10;10.55;;;6.43;;
80211;SDS011;70434;37.956;23.722;2023-11-21T00:36:37;9.65;;;6.43;;
80211;SDS011;70434;37.956;23.722;2023-11-21T00:39:03;13.40;;;6.28;;
80211;SDS011;70434;37.956;23.722;2023-11-21T00:41:30;12.05;;;5.95;;
80211;SDS011;70434;37.956;23.722;2023-11-21T00:43:57;9.77;;;5.13;;
80211;SDS011;70434;37.956;23.722;2023-11-21T00:46:24;9.43;;;5.05;;
80211;SDS011;70434;37.956;23.722;2023-11-21T00:48:52;10.20;;;5.32;;
80211;SDS011;70434;37.956;23.722;2023-11-21T00:51:19;9.05;;;4.47;;
80211;SDS011;70434;37.956;23.722;2023-11-21T00:53:45;8.00;;;4.65;;
80211;SDS011;70434;37.956;23.722;2023-11-21T00:56:12;9.23;;;4.93;;
80211;SDS011;70434;37.956;23.722;2023-11-21T00:58:38;9.70;;;5.10;;
80211;SDS011;70434;37.956;23.722;2023-11-21T01:01:07;8.32;;;4.43;;
80211;SDS011;70434;37.956;23.722;2023-11-21T01:03:33;8.32;;;4.70;;
80211;SDS011;70434;37.956;23.722;2023-11-21T01:05:59;13.75;;;6.15;;
80211;SDS011;70434;37.956;23.722;2023-11-21T01:08:24;9.07;;;4.95;;
80211;SDS011;70434;37.956;23.722;2023-11-21T01:10:50;8.52;;;4.53;;
80211;SDS011;70434;37.956;23.722;2023-11-21T01:13:16;7.43;;;4.72;;
80211;SDS011;70434;37.956;23.722;2023-11-21T01:15:42;12.55;;;5.30;;
80211;SDS011;70434;37.956;23.722;2023-11-21T01:18:07;9.95;;;5.35;;
80211;SDS011;70434;37.956;23.722;2023-11-21T01:20:33;9.90;;;5.28;;
80211;SDS011;70434;37.956;23.722;2023-11-21T01:22:59;7.68;;;4.80;;
80211;SDS011;70434;37.956;23.722;2023-11-21T01:25:25;8.00;;;4.57;;
80211;SDS011;70434;37.956;23.722;2023-11-21T01:27:51;9.32;;;4.80;;
80211;SDS011;70434;37.956;23.722;2023-11-21T01:30:17;9.65;;;4.35;;
80211;SDS011;70434;37.956;23.722;2023-11-21T01:32:43;8.82;;;5.10;;
80211;SDS011;70434;37.956;23.722;2023-11-21T01:35:09;7.85;;;4.53;;
80211;SDS011;70434;37.956;23.722;2023-11-21T01:37:37;9.77;;;4.97;;
80211;SDS011;70434;37.956;23.722;2023-11-21T01:40:04;8.95;;;5.13;;
80211;SDS011;70434;37.956;23.722;2023-11-21T01:42:34;14.07;;;6.30;;
80211;SDS011;70434;37.956;23.722;2023-11-21T01:45:00;13.50;;;5.25;;
80211;SDS011;70434;37.956;23.722;2023-11-21T01:47:30;12.27;;;6.03;;
80211;SDS011;70434;37.956;23.722;2023-11-21T01:49:57;8.65;;;5.55;;
80211;SDS011;70434;37.956;23.722;2023-11-21T01:52:23;9.88;;;4.70;;
80211;SDS011;70434;37.956;23.722;2023-11-21T01:54:50;10.13;;;5.80;;
80211;SDS011;70434;37.956;23.722;2023-11-21T01:57:15;11.95;;;6.13;;
80211;SDS011;70434;37.956;23.722;2023-11-21T01:59:41;9.93;;;5.28;;
80211;SDS011;70434;37.956;23.722;2023-11-21T02:02:09;13.70;;;6.93;;
80211;SDS011;70434;37.956;23.722;2023-11-21T02:04:35;9.32;;;5.40;;
80211;SDS011;70434;37.956;23.722;2023-11-21T02:07:02;9.93;;;5.93;;
80211;SDS011;70434;37.956;23.722;2023-11-21T02:09:31;8.05;;;4.80;;
80211;SDS011;70434;37.956;23.722;2023-11-21T02:12:00;11.85;;;6.10;;
80211;SDS011;70434;37.956;23.722;2023-11-21T02:14:26;7.90;;;5.25;;
80211;SDS011;70434;37.956;23.722;2023-11-21T02:16:53;8.27;;;4.95;;
80211;SDS011;70434;37.956;23.722;2023-11-21T02:19:21;12.20;;;5.97;;
80211;SDS011;70434;37.956;23.722;2023-11-21T02:21:51;10.73;;;5.88;;
80211;SDS011;70434;37.956;23.722;2023-11-21T02:24:22;12.65;;;5.93;;
80211;SDS011;70434;37.956;23.722;2023-11-21T02:26:48;9.55;;;5.78;;
80211;SDS011;70434;37.956;23.722;2023-11-21T02:29:20;8.75;;;6.00;;
80211;SDS011;70434;37.956;23.722;2023-11-21T02:31:55;10.77;;;5.85;;
80211;SDS011;70434;37.956;23.722;2023-11-21T02:34:22;8.60;;;5.53;;
80211;SDS011;70434;37.956;23.722;2023-11-21T02:36:49;10.50;;;5.32;;
80211;SDS011;70434;37.956;23.722;2023-11-21T02:39:16;13.23;;;5.93;;
80211;SDS011;70434;37.956;23.722;2023-11-21T02:41:43;8.85;;;5.22;;
80211;SDS011;70434;37.956;23.722;2023-11-21T02:44:09;11.93;;;5.68;;
80211;SDS011;70434;37.956;23.722;2023-11-21T02:46:35;9.00;;;4.85;;
80211;SDS011;70434;37.956;23.722;2023-11-21T02:49:05;10.40;;;5.15;;
80211;SDS011;70434;37.956;23.722;2023-11-21T02:51:31;9.00;;;4.95;;
80211;SDS011;70434;37.956;23.722;2023-11-21T02:53:58;12.07;;;4.97;;
80211;SDS011;70434;37.956;23.722;2023-11-21T02:56:25;9.48;;;4.22;;
80211;SDS011;70434;37.956;23.722;2023-11-21T02:58:51;8.20;;;4.53;;
80211;SDS011;70434;37.956;23.722;2023-11-21T03:01:18;9.18;;;4.47;;
80211;SDS011;70434;37.956;23.722;2023-11-21T03:03:43;14.13;;;5.18;;
80211;SDS011;70434;37.956;23.722;2023-11-21T03:06:09;7.38;;;4.30;;
80211;SDS011;70434;37.956;23.722;2023-11-21T03:08:35;7.35;;;4.45;;
80211;SDS011;70434;37.956;23.722;2023-11-21T03:11:01;7.45;;;4.35;;
80211;SDS011;70434;37.956;23.722;2023-11-21T03:13:29;8.90;;;4.15;;
80211;SDS011;70434;37.956;23.722;2023-11-21T03:15:55;8.98;;;4.10;;
80211;SDS011;70434;37.956;23.722;2023-11-21T03:18:21;8.88;;;4.07;;
80211;SDS011;70434;37.956;23.722;2023-11-21T03:20:51;11.05;;;4.30;;
80211;SDS011;70434;37.956;23.722;2023-11-21T03:23:17;18.60;;;4.80;;
80211;SDS011;70434;37.956;23.722;2023-11-21T03:25:43;12.93;;;5.07;;
80211;SDS011;70434;37.956;23.722;2023-11-21T03:28:09;11.35;;;4.90;;
80211;SDS011;70434;37.956;23.722;2023-11-21T03:30:34;5.57;;;3.88;;
80211;SDS011;70434;37.956;23.722;2023-11-21T03:33:00;7.72;;;3.60;;
80211;SDS011;70434;37.956;23.722;2023-11-21T03:35:26;6.38;;;4.03;;
80211;SDS011;70434;37.956;23.722;2023-11-21T03:37:53;7.85;;;3.58;;
80211;SDS011;70434;37.956;23.722;2023-11-21T03:40:18;7.70;;;4.32;;
80211;SDS011;70434;37.956;23.722;2023-11-21T03:42:46;10.93;;;3.80;;
80211;SDS011;70434;37.956;23.722;2023-11-21T03:45:12;6.82;;;3.65;;
80211;SDS011;70434;37.956;23.722;2023-11-21T03:47:39;5.95;;;3.65;;
80211;SDS011;70434;37.956;23.722;2023-11-21T03:50:08;5.88;;;3.35;;
80211;SDS011;70434;37.956;23.722;2023-11-21T03:52:34;7.88;;;3.72;;
80211;SDS011;70434;37.956;23.722;2023-11-21T03:55:00;10.57;;;4.15;;
80211;SDS011;70434;37.956;23.722;2023-11-21T03:57:26;7.90;;;4.20;;
80211;SDS011;70434;37.956;23.722;2023-11-21T03:59:55;15.77;;;5.00;;
80211;SDS011;70434;37.956;23.722;2023-11-21T04:02:21;8.35;;;4.05;;
80211;SDS011;70434;37.956;23.722;2023-11-21T04:04:46;10.25;;;4.85;;
80211;SDS011;70434;37.956;23.722;2023-11-21T04:07:12;11.82;;;4.43;;
80211;SDS011;70434;37.956;23.722;2023-11-21T04:09:39;7.88;;;4.07;;
80211;SDS011;70434;37.956;23.722;2023-11-21T04:12:06;8.95;;;3.58;;
80211;SDS011;70434;37.956;23.722;2023-11-21T04:14:33;11.93;;;5.20;;
80211;SDS011;70434;37.956;23.722;2023-11-21T04:16:59;12.88;;;5.70;;
80211;SDS011;70434;37.956;23.722;2023-11-21T04:19:25;9.98;;;4.82;;
80211;SDS011;70434;37.956;23.722;2023-11-21T04:21:51;11.82;;;5.07;;
80211;SDS011;70434;37.956;23.722;2023-11-21T04:24:16;10.15;;;5.05;;
80211;SDS011;70434;37.956;23.722;2023-11-21T04:26:43;10.35;;;4.55;;
80211;SDS011;70434;37.956;23.722;2023-11-21T04:29:09;12.45;;;6.57;;
80211;SDS011;70434;37.956;23.722;2023-11-21T04:31:35;12.07;;;4.75;;
80211;SDS011;70434;37.956;23.722;2023-11-21T04:34:01;11.13;;;4.85;;
80211;SDS011;70434;37.956;23.722;2023-11-21T04:36:29;10.70;;;4.00;;
80211;SDS011;70434;37.956;23.722;2023-11-21T04:38:55;12.45;;;5.55;;
80211;SDS011;70434;37.956;23.722;2023-11-21T04:41:21;9.60;;;4.68;;
80211;SDS011;70434;37.956;23.722;2023-11-21T04:43:47;11.48;;;4.32;;
80211;SDS011;70434;37.956;23.722;2023-11-21T04:46:14;6.57;;;3.75;;
80211;SDS011;70434;37.956;23.722;2023-11-21T04:48:40;12.13;;;3.60;;
80211;SDS011;70434;37.956;23.722;2023-11-21T04:51:06;5.90;;;3.70;;
80211;SDS011;70434;37.956;23.722;2023-11-21T04:53:31;12.18;;;6.20;;
80211;SDS011;70434;37.956;23.722;2023-11-21T04:55:57;18.23;;;10.30;;
80211;SDS011;70434;37.956;23.722;2023-11-21T04:58:23;55.90;;;27.80;;
80211;SDS011;70434;37.956;23.722;2023-11-21T05:00:49;15.20;;;8.75;;
80211;SDS011;70434;37.956;23.722;2023-11-21T05:03:15;11.57;;;5.22;;
80211;SDS011;70434;37.956;23.722;2023-11-21T05:05:41;15.55;;;8.70;;
80211;SDS011;70434;37.956;23.722;2023-11-21T05:08:06;20.80;;;9.25;;
80211;SDS011;70434;37.956;23.722;2023-11-21T05:10:33;15.55;;;6.47;;
80211;SDS011;70434;37.956;23.722;2023-11-21T05:12:59;24.27;;;9.30;;
80211;SDS011;70434;37.956;23.722;2023-11-21T05:15:25;20.13;;;10.20;;
80211;SDS011;70434;37.956;23.722;2023-11-21T05:17:52;10.90;;;5.60;;
80211;SDS011;70434;37.956;23.722;2023-11-21T05:20:19;6.72;;;4.28;;
80211;SDS011;70434;37.956;23.722;2023-11-21T05:22:49;9.98;;;4.18;;
80211;SDS011;70434;37.956;23.722;2023-11-21T05:25:15;10.02;;;4.43;;
80211;SDS011;70434;37.956;23.722;2023-11-21T05:27:45;12.88;;;5.07;;
80211;SDS011;70434;37.956;23.722;2023-11-21T05:30:11;15.27;;;7.45;;
80211;SDS011;70434;37.956;23.722;2023-11-21T05:32:38;14.63;;;5.15;;
80211;SDS011;70434;37.956;23.722;2023-11-21T05:35:04;16.10;;;5.20;;
80211;SDS011;70434;37.956;23.722;2023-11-21T05:37:37;18.38;;;6.40;;
80211;SDS011;70434;37.956;23.722;2023-11-21T05:40:05;9.82;;;4.70;;
80211;SDS011;70434;37.956;23.722;2023-11-21T05:42:32;11.70;;;4.82;;
80211;SDS011;70434;37.956;23.722;2023-11-21T05:44:59;10.07;;;4.43;;
80211;SDS011;70434;37.956;23.722;2023-11-21T05:47:34;14.45;;;4.60;;
80211;SDS011;70434;37.956;23.722;2023-11-21T05:50:05;12.98;;;4.65;;
80211;SDS011;70434;37.956;23.722;2023-11-21T05:52:35;8.38;;;4.57;;
80211;SDS011;70434;37.956;23.722;2023-11-21T05:55:02;7.60;;;4.47;;
80211;SDS011;70434;37.956;23.722;2023-11-21T05:57:30;14.27;;;5.00;;
80211;SDS011;70434;37.956;23.722;2023-11-21T05:59:55;28.90;;;8.27;;
80211;SDS011;70434;37.956;23.722;2023-11-21T06:02:21;18.67;;;7.95;;
80211;SDS011;70434;37.956;23.722;2023-11-21T06:04:47;18.35;;;6.93;;
80211;SDS011;70434;37.956;23.722;2023-11-21T06:07:12;12.35;;;6.20;;
80211;SDS011;70434;37.956;23.722;2023-11-21T06:09:38;17.02;;;9.18;;
80211;SDS011;70434;37.956;23.722;2023-11-21T06:12:04;20.25;;;9.82;;
80211;SDS011;70434;37.956;23.722;2023-11-21T06:14:30;18.10;;;6.38;;
80211;SDS011;70434;37.956;23.722;2023-11-21T06:16:58;10.57;;;6.35;;
80211;SDS011;70434;37.956;23.722;2023-11-21T06:19:24;20.55;;;8.18;;
80211;SDS011;70434;37.956;23.722;2023-11-21T06:21:49;23.02;;;8.35;;
80211;SDS011;70434;37.956;23.722;2023-11-21T06:24:15;18.23;;;8.35;;
80211;SDS011;70434;37.956;23.722;2023-11-21T06:26:42;11.93;;;6.47;;
80211;SDS011;70434;37.956;23.722;2023-11-21T06:29:09;19.23;;;6.72;;
80211;SDS011;70434;37.956;23.722;2023-11-21T06:31:36;12.85;;;5.93;;
80211;SDS011;70434;37.956;23.722;2023-11-21T06:34:01;33.10;;;20.48;;
80211;SDS011;70434;37.956;23.722;2023-11-21T06:36:28;31.85;;;17.23;;
80211;SDS011;70434;37.956;23.722;2023-11-21T06:38:54;9.48;;;6.40;;
80211;SDS011;70434;37.956;23.722;2023-11-21T06:41:20;18.50;;;6.30;;
80211;SDS011;70434;37.956;23.722;2023-11-21T06:43:45;14.38;;;8.48;;
80211;SDS011;70434;37.956;23.722;2023-11-21T06:46:12;20.83;;;9.65;;
80211;SDS011;70434;37.956;23.722;2023-11-21T06:48:43;21.10;;;8.60;;
80211;SDS011;70434;37.956;23.722;2023-11-21T06:51:10;15.68;;;6.60;;
80211;SDS011;70434;37.956;23.722;2023-11-21T06:53:36;14.63;;;7.15;;
80211;SDS011;70434;37.956;23.722;2023-11-21T06:56:02;18.98;;;7.30;;
80211;SDS011;70434;37.956;23.722;2023-11-21T06:58:28;13.90;;;7.47;;
80211;SDS011;70434;37.956;23.722;2023-11-21T07:00:54;12.75;;;7.25;;
80211;SDS011;70434;37.956;23.722;2023-11-21T07:03:20;16.13;;;6.65;;
80211;SDS011;70434;37.956;23.722;2023-11-21T07:05:45;12.52;;;6.57;;
80211;SDS011;70434;37.956;23.722;2023-11-21T07:08:11;21.25;;;7.30;;
80211;SDS011;70434;37.956;23.722;2023-11-21T07:10:37;11.95;;;7.07;;
80211;SDS011;70434;37.956;23.722;2023-11-21T07:13:03;14.32;;;6.45;;
80211;SDS011;70434;37.956;23.722;2023-11-21T07:15:29;16.88;;;7.80;;
80211;SDS011;70434;37.956;23.722;2023-11-21T07:17:55;18.02;;;7.40;;
80211;SDS011;70434;37.956;23.722;2023-11-21T07:20:20;17.00;;;7.40;;
80211;SDS011;70434;37.956;23.722;2023-11-21T07:22:46;18.83;;;10.10;;
80211;SDS011;70434;37.956;23.722;2023-11-21T07:25:12;17.10;;;9.30;;
80211;SDS011;70434;37.956;23.722;2023-11-21T07:27:38;34.83;;;19.60;;
80211;SDS011;70434;37.956;23.722;2023-11-21T07:30:04;32.63;;;17.58;;
80211;SDS011;70434;37.956;23.722;2023-11-21T07:32:31;32.88;;;16.65;;
80211;SDS011;70434;37.956;23.722;2023-11-21T07:34:57;17.05;;;9.05;;
80211;SDS011;70434;37.956;23.722;2023-11-21T07:37:24;17.98;;;9.63;;
80211;SDS011;70434;37.956;23.722;2023-11-21T07:39:53;23.38;;;10.43;;
80211;SDS011;70434;37.956;23.722;2023-11-21T07:42:21;19.55;;;9.38;;
80211;SDS011;70434;37.956;23.722;2023-11-21T07:44:49;16.63;;;8.70;;
80211;SDS011;70434;37.956;23.722;2023-11-21T07:47:15;23.08;;;9.93;;
80211;SDS011;70434;37.956;23.722;2023-11-21T07:49:44;20.70;;;8.85;;
80211;SDS011;70434;37.956;23.722;2023-11-21T07:52:10;18.27;;;8.50;;
80211;SDS011;70434;37.956;23.722;2023-11-21T07:54:36;24.80;;;9.38;;
80211;SDS011;70434;37.956;23.722;2023-11-21T07:57:01;22.58;;;11.18;;
80211;SDS011;70434;37.956;23.722;2023-11-21T07:59:29;20.60;;;10.38;;
80211;SDS011;70434;37.956;23.722;2023-11-21T08:01:55;43.47;;;19.75;;
80211;SDS011;70434;37.956;23.722;2023-11-21T08:04:21;27.55;;;13.27;;
80211;SDS011;70434;37.956;23.722;2023-11-21T08:06:47;27.33;;;13.90;;
80211;SDS011;70434;37.956;23.722;2023-11-21T08:09:12;21.42;;;9.10;;
80211;SDS011;70434;37.956;23.722;2023-11-21T08:11:38;20.48;;;9.73;;
80211;SDS011;70434;37.956;23.722;2023-11-21T08:14:04;22.48;;;11.65;;
80211;SDS011;70434;37.956;23.722;2023-11-21T08:16:30;20.52;;;7.97;;
80211;SDS011;70434;37.956;23.722;2023-11-21T08:18:56;16.00;;;8.73;;
80211;SDS011;70434;37.956;23.722;2023-11-21T08:21:22;23.70;;;9.18;;
80211;SDS011;70434;37.956;23.722;2023-11-21T08:23:53;15.45;;;8.00;;
80211;SDS011;70434;37.956;23.722;2023-11-21T08:26:22;12.40;;;6.95;;
80211;SDS011;70434;37.956;23.722;2023-11-21T08:28:48;16.58;;;7.40;;
80211;SDS011;70434;37.956;23.722;2023-11-21T08:31:14;14.32;;;7.30;;
80211;SDS011;70434;37.956;23.722;2023-11-21T08:33:40;18.17;;;9.95;;
80211;SDS011;70434;37.956;23.722;2023-11-21T08:36:07;12.20;;;6.43;;
80211;SDS011;70434;37.956;23.722;2023-11-21T08:38:33;13.95;;;7.43;;
80211;SDS011;70434;37.956;23.722;2023-11-21T08:41:04;10.65;;;6.18;;
80211;SDS011;70434;37.956;23.722;2023-11-21T08:43:32;11.65;;;7.10;;
80211;SDS011;70434;37.956;23.722;2023-11-21T08:46:04;12.63;;;6.38;;
80211;SDS011;70434;37.956;23.722;2023-11-21T08:48:36;20.38;;;7.97;;
80211;SDS011;70434;37.956;23.722;2023-11-21T08:51:03;12.95;;;7.55;;
80211;SDS011;70434;37.956;23.722;2023-11-21T08:53:29;11.85;;;6.00;;
80211;SDS011;70434;37.956;23.722;2023-11-21T08:55:56;12.77;;;6.20;;
80211;SDS011;70434;37.956;23.722;2023-11-21T11:27:19;10.20;;;5.38;;
80211;SDS011;70434;37.956;23.722;2023-11-21T11:30:03;10.00;;;4.20;;
80211;SDS011;70434;37.956;23.722;2023-11-21T11:33:11;10.93;;;5.10;;
80211;SDS011;70434;37.956;23.722;2023-11-21T11:38:32;11.52;;;3.63;;
80211;SDS011;70434;37.956;23.722;2023-11-21T11:41:03;7.88;;;3.25;;
80211;SDS011;70434;37.956;23.722;2023-11-21T11:43:30;7.18;;;3.60;;
80211;SDS011;70434;37.956;23.722;2023-11-21T11:46:09;9.15;;;3.42;;
80211;SDS011;70434;37.956;23.722;2023-11-21T11:48:38;7.70;;;3.22;;
80211;SDS011;70434;37.956;23.722;2023-11-21T11:51:05;9.57;;;3.35;;
80211;SDS011;70434;37.956;23.722;2023-11-21T11:53:42;7.88;;;3.17;;
80211;SDS011;70434;37.956;23.722;2023-11-21T11:58:46;9.35;;;3.05;;
80211;SDS011;70434;37.956;23.722;2023-11-21T12:01:13;8.07;;;2.63;;
80211;SDS011;70434;37.956;23.722;2023-11-21T12:03:39;5.85;;;2.90;;
80211;SDS011;70434;37.956;23.722;2023-11-21T12:06:05;4.97;;;2.25;;
80211;SDS011;70434;37.956;23.722;2023-11-21T12:08:32;4.47;;;2.10;;
80211;SDS011;70434;37.956;23.722;2023-11-21T12:10:58;6.18;;;3.10;;
80211;SDS011;70434;37.956;23.722;2023-11-21T12:13:23;6.78;;;2.88;;
80211;SDS011;70434;37.956;23.722;2023-11-21T12:15:49;6.50;;;2.67;;
80211;SDS011;70434;37.956;23.722;2023-11-21T12:18:15;10.10;;;3.83;;
80211;SDS011;70434;37.956;23.722;2023-11-21T12:20:41;11.00;;;3.10;;
80211;SDS011;70434;37.956;23.722;2023-11-21T12:23:08;6.15;;;2.85;;
80211;SDS011;70434;37.956;23.722;2023-11-21T12:25:39;5.95;;;2.70;;
80211;SDS011;70434;37.956;23.722;2023-11-21T12:28:06;5.95;;;2.22;;
80211;SDS011;70434;37.956;23.722;2023-11-21T12:30:33;5.60;;;3.17;;
80211;SDS011;70434;37.956;23.722;2023-11-21T12:33:03;5.65;;;3.03;;
80211;SDS011;70434;37.956;23.722;2023-11-21T12:35:32;4.93;;;2.80;;
80211;SDS011;70434;37.956;23.722;2023-11-21T12:37:59;6.05;;;3.53;;
80211;SDS011;70434;37.956;23.722;2023-11-21T12:40:27;4.90;;;2.30;;
80211;SDS011;70434;37.956;23.722;2023-11-21T12:42:58;5.72;;;2.63;;
80211;SDS011;70434;37.956;23.722;2023-11-21T12:45:26;5.93;;;2.58;;
80211;SDS011;70434;37.956;23.722;2023-11-21T12:47:57;6.55;;;2.47;;
80211;SDS011;70434;37.956;23.722;2023-11-21T12:50:34;6.32;;;2.30;;
80211;SDS011;70434;37.956;23.722;2023-11-21T12:55:41;8.32;;;3.17;;
80211;SDS011;70434;37.956;23.722;2023-11-21T12:58:08;16.45;;;3.28;;
80211;SDS011;70434;37.956;23.722;2023-11-21T13:00:36;4.85;;;2.80;;
80211;SDS011;70434;37.956;23.722;2023-11-21T13:03:08;10.00;;;3.63;;
80211;SDS011;70434;37.956;23.722;2023-11-21T13:05:38;5.57;;;3.10;;
80211;SDS011;70434;37.956;23.722;2023-11-21T13:08:07;5.20;;;3.00;;
80211;SDS011;70434;37.956;23.722;2023-11-21T13:10:35;6.25;;;3.05;;
80211;SDS011;70434;37.956;23.722;2023-11-21T13:13:06;6.80;;;3.22;;
80211;SDS011;70434;37.956;23.722;2023-11-21T13:15:34;5.50;;;3.13;;
80211;SDS011;70434;37.956;23.722;2023-11-21T13:18:04;8.70;;;2.80;;
80211;SDS011;70434;37.956;23.722;2023-11-21T13:20:29;13.50;;;7.80;;
80211;SDS011;70434;37.956;23.722;2023-11-21T13:22:56;9.27;;;3.47;;
80211;SDS011;70434;37.956;23.722;2023-11-21T13:25:26;7.55;;;3.85;;
80211;SDS011;70434;37.956;23.722;2023-11-21T13:27:56;7.35;;;3.85;;
80211;SDS011;70434;37.956;23.722;2023-11-21T13:30:23;11.48;;;4.05;;
80211;SDS011;70434;37.956;23.722;2023-11-21T13:32:55;9.45;;;4.63;;
80211;SDS011;70434;37.956;23.722;2023-11-21T13:35:26;11.30;;;3.90;;
80211;SDS011;70434;37.956;23.722;2023-11-21T13:38:02;10.43;;;4.47;;
80211;SDS011;70434;37.956;23.722;2023-11-21T13:40:31;8.35;;;3.08;;
80211;SDS011;70434;37.956;23.722;2023-11-21T13:42:59;8.75;;;3.13;;
80211;SDS011;70434;37.956;23.722;2023-11-21T13:45:29;8.35;;;3.58;;
80211;SDS011;70434;37.956;23.722;2023-11-21T13:47:56;10.40;;;3.30;;
80211;SDS011;70434;37.956;23.722;2023-11-21T13:50:27;5.63;;;3.20;;
80211;SDS011;70434;37.956;23.722;2023-11-21T13:53:01;6.03;;;2.97;;
80211;SDS011;70434;37.956;23.722;2023-11-21T13:55:36;4.88;;;2.92;;
80211;SDS011;70434;37.956;23.722;2023-11-21T13:58:02;9.75;;;4.82;;
80211;SDS011;70434;37.956;23.722;2023-11-21T14:00:29;6.80;;;3.20;;
80211;SDS011;70434;37.956;23.722;2023-11-21T14:03:21;9.30;;;3.13;;
80211;SDS011;70434;37.956;23.722;2023-11-21T14:05:57;8.80;;;3.08;;
80211;SDS011;70434;37.956;23.722;2023-11-21T14:08:25;7.75;;;3.05;;
80211;SDS011;70434;37.956;23.722;2023-11-21T14:10:57;10.52;;;3.90;;
80211;SDS011;70434;37.956;23.722;2023-11-21T14:13:25;14.20;;;5.90;;
80211;SDS011;70434;37.956;23.722;2023-11-21T14:15:54;12.25;;;5.72;;
80211;SDS011;70434;37.956;23.722;2023-11-21T14:18:24;7.10;;;3.72;;
80211;SDS011;70434;37.956;23.722;2023-11-21T14:21:03;8.77;;;4.40;;
80211;SDS011;70434;37.956;23.722;2023-11-21T14:23:30;6.78;;;3.60;;
80211;SDS011;70434;37.956;23.722;2023-11-21T14:25:58;14.23;;;3.35;;
80211;SDS011;70434;37.956;23.722;2023-11-21T14:28:26;7.25;;;3.65;;
80211;SDS011;70434;37.956;23.722;2023-11-21T14:30:52;8.60;;;4.65;;
80211;SDS011;70434;37.956;23.722;2023-11-21T14:33:17;8.68;;;3.78;;
80211;SDS011;70434;37.956;23.722;2023-11-21T14:35:43;9.35;;;3.50;;
80211;SDS011;70434;37.956;23.722;2023-11-21T14:38:09;8.90;;;4.50;;
80211;SDS011;70434;37.956;23.722;2023-11-21T14:40:35;9.73;;;6.13;;
80211;SDS011;70434;37.956;23.722;2023-11-21T14:43:04;10.82;;;5.47;;
80211;SDS011;70434;37.956;23.722;2023-11-21T14:45:31;9.73;;;3.75;;
80211;SDS011;70434;37.956;23.722;2023-11-21T14:47:58;7.65;;;3.70;;
80211;SDS011;70434;37.956;23.722;2023-11-21T14:50:29;10.85;;;5.10;;
80211;SDS011;70434;37.956;23.722;2023-11-21T14:53:11;18.80;;;5.00;;
80211;SDS011;70434;37.956;23.722;2023-11-21T14:55:38;9.45;;;4.40;;
80211;SDS011;70434;37.956;23.722;2023-11-21T14:58:17;13.65;;;7.32;;
80211;SDS011;70434;37.956;23.722;2023-11-21T15:00:57;10.35;;;5.03;;
80211;SDS011;70434;37.956;23.722;2023-11-21T15:03:27;10.95;;;6.80;;
80211;SDS011;70434;37.956;23.722;2023-11-21T15:05:56;14.10;;;6.40;;
80211;SDS011;70434;37.956;23.722;2023-11-21T15:08:23;9.40;;;4.68;;
80211;SDS011;70434;37.956;23.722;2023-11-21T15:10:56;10.23;;;5.30;;
80211;SDS011;70434;37.956;23.722;2023-11-21T15:13:22;16.25;;;6.50;;
80211;SDS011;70434;37.956;23.722;2023-11-21T15:15:50;11.35;;;5.38;;
80211;SDS011;70434;37.956;23.722;2023-11-21T15:18:18;10.25;;;5.50;;
80211;SDS011;70434;37.956;23.722;2023-11-21T15:20:44;11.57;;;5.60;;
80211;SDS011;70434;37.956;23.722;2023-11-21T15:23:10;16.45;;;5.75;;
80211;SDS011;70434;37.956;23.722;2023-11-21T15:25:37;8.90;;;5.47;;
80211;SDS011;70434;37.956;23.722;2023-11-21T15:28:03;14.77;;;6.30;;
80211;SDS011;70434;37.956;23.722;2023-11-21T15:30:30;12.95;;;7.00;;
80211;SDS011;70434;37.956;23.722;2023-11-21T15:32:59;12.50;;;7.43;;
80211;SDS011;70434;37.956;23.722;2023-11-21T15:35:25;8.85;;;6.30;;
80211;SDS011;70434;37.956;23.722;2023-11-21T15:37:53;13.25;;;8.45;;
80211;SDS011;70434;37.956;23.722;2023-11-21T15:40:23;17.25;;;8.43;;
80211;SDS011;70434;37.956;23.722;2023-11-21T15:42:48;18.50;;;9.90;;
80211;SDS011;70434;37.956;23.722;2023-11-21T15:45:14;17.30;;;8.77;;
80211;SDS011;70434;37.956;23.722;2023-11-21T15:47:43;13.70;;;7.57;;
80211;SDS011;70434;37.956;23.722;2023-11-21T15:50:09;20.08;;;7.78;;
80211;SDS011;70434;37.956;23.722;2023-11-21T15:52:35;13.02;;;7.30;;
80211;SDS011;70434;37.956;23.722;2023-11-21T15:55:02;14.60;;;7.97;;
80211;SDS011;70434;37.956;23.722;2023-11-21T15:57:28;16.90;;;8.15;;
80211;SDS011;70434;37.956;23.722;2023-11-21T15:59:53;19.48;;;8.38;;
80211;SDS011;70434;37.956;23.722;2023-11-21T16:02:19;21.73;;;10.55;;
80211;SDS011;70434;37.956;23.722;2023-11-21T16:04:45;24.50;;;12.90;;
80211;SDS011;70434;37.956;23.722;2023-11-21T16:07:11;20.80;;;11.18;;
80211;SDS011;70434;37.956;23.722;2023-11-21T16:09:37;20.60;;;10.73;;
80211;SDS011;70434;37.956;23.722;2023-11-21T16:12:05;16.17;;;9.00;;
80211;SDS011;70434;37.956;23.722;2023-11-21T16:14:32;25.58;;;13.02;;
80211;SDS011;70434;37.956;23.722;2023-11-21T16:17:00;31.00;;;15.93;;
80211;SDS011;70434;37.956;23.722;2023-11-21T16:19:27;39.85;;;26.05;;
80211;SDS011;70434;37.956;23.722;2023-11-21T16:21:53;43.97;;;23.65;;
80211;SDS011;70434;37.956;23.722;2023-11-21T16:24:19;30.45;;;17.60;;
80211;SDS011;70434;37.956;23.722;2023-11-21T16:26:47;30.35;;;14.60;;
80211;SDS011;70434;37.956;23.722;2023-11-21T16:29:13;24.13;;;12.50;;
80211;SDS011;70434;37.956;23.722;2023-11-21T16:31:40;24.77;;;12.35;;
80211;SDS011;70434;37.956;23.722;2023-11-21T16:34:13;22.17;;;14.00;;
80211;SDS011;70434;37.956;23.722;2023-11-21T16:36:40;25.95;;;15.30;;
80211;SDS011;70434;37.956;23.722;2023-11-21T16:39:11;28.17;;;14.85;;
80211;SDS011;70434;37.956;23.722;2023-11-21T16:41:40;35.42;;;22.08;;
80211;SDS011;70434;37.956;23.722;2023-11-21T16:44:12;32.40;;;17.15;;
80211;SDS011;70434;37.956;23.722;2023-11-21T16:46:46;21.20;;;13.77;;
80211;SDS011;70434;37.956;23.722;2023-11-21T16:49:15;22.10;;;12.50;;
80211;SDS011;70434;37.956;23.722;2023-11-21T16:51:44;19.15;;;13.55;;
80211;SDS011;70434;37.956;23.722;2023-11-21T16:54:12;17.42;;;12.38;;
80211;SDS011;70434;37.956;23.722;2023-11-21T16:56:40;20.23;;;11.25;;
80211;SDS011;70434;37.956;23.722;2023-11-21T16:59:06;20.15;;;11.70;;
80211;SDS011;70434;37.956;23.722;2023-11-21T17:01:31;27.42;;;13.07;;
80211;SDS011;70434;37.956;23.722;2023-11-21T17:03:57;21.98;;;12.38;;
80211;SDS011;70434;37.956;23.722;2023-11-21T17:06:23;21.92;;;11.48;;